QAV30E EPSC-EPKT
Flight info
| Callsign | QAV30E |
|---|---|
| Flight time | 0h 53m |
| Altitude | 35000 |
| Route | APNEZ DCT DENKO DCT NUDRO DCT MOFKE |
| Aircraft | E55P/M-SDE2E3FGHIRWXY/S |
Departure
| Time | 2026-05-07 17:21 |
|---|---|
| Airport | Solidarity Szczecin–Goleniów Airport (EPSC) |
Arrival
| Time | 2026-05-07 18:14 |
|---|---|
| Airport | Katowice Wojciech Korfanty International Airport (EPKT) |
| Time | Latitude | Longitude | Altitude | Speed | Heading |
|---|---|---|---|---|---|
| 2026-05-07 17:05 | 53.59184 | 14.89688 | 155 ft | 0 kts | 253° |
| 2026-05-07 17:17 | 53.59184 | 14.89687 | 155 ft | 0 kts | 253° |
| 2026-05-07 17:18 | 53.59139 | 14.89693 | 156 ft | 15 kts | 137° |
| 2026-05-07 17:18 | 53.59037 | 14.89893 | 156 ft | 28 kts | 131° |
| 2026-05-07 17:18 | 53.58917 | 14.90123 | 156 ft | 15 kts | 144° |
| 2026-05-07 17:18 | 53.58820 | 14.90032 | 156 ft | 18 kts | 202° |
| 2026-05-07 17:19 | 53.58714 | 14.90174 | 156 ft | 24 kts | 131° |
| 2026-05-07 17:19 | 53.58599 | 14.90400 | 156 ft | 25 kts | 129° |
| 2026-05-07 17:19 | 53.58464 | 14.90659 | 156 ft | 30 kts | 131° |
| 2026-05-07 17:19 | 53.58316 | 14.90948 | 156 ft | 35 kts | 131° |
| 2026-05-07 17:20 | 53.58157 | 14.91256 | 156 ft | 36 kts | 131° |
| 2026-05-07 17:20 | 53.57998 | 14.91581 | 156 ft | 34 kts | 126° |
| 2026-05-07 17:20 | 53.57856 | 14.91780 | 156 ft | 18 kts | 199° |
| 2026-05-07 17:20 | 53.57769 | 14.91646 | 156 ft | 15 kts | 257° |
| 2026-05-07 17:21 | 53.57809 | 14.91507 | 155 ft | 9 kts | 312° |
| 2026-05-07 17:21 | 53.57933 | 14.91274 | 156 ft | 62 kts | 311° |
| 2026-05-07 17:21 | 53.58380 | 14.90394 | 247 ft | 125 kts | 309° |
| 2026-05-07 17:21 | 53.58981 | 14.89164 | 837 ft | 149 kts | 313° |
| 2026-05-07 17:22 | 53.59719 | 14.87748 | 1494 ft | 178 kts | 313° |
| 2026-05-07 17:22 | 53.60591 | 14.86065 | 2148 ft | 208 kts | 313° |
| 2026-05-07 17:22 | 53.61598 | 14.84101 | 2790 ft | 236 kts | 314° |
| 2026-05-07 17:22 | 53.62630 | 14.82105 | 4135 ft | 229 kts | 315° |
| 2026-05-07 17:23 | 53.63560 | 14.79924 | 5071 ft | 244 kts | 293° |
| 2026-05-07 17:23 | 53.63548 | 14.77085 | 6162 ft | 254 kts | 253° |
| 2026-05-07 17:23 | 53.62493 | 14.74758 | 7214 ft | 258 kts | 218° |
| 2026-05-07 17:23 | 53.61109 | 14.72907 | 8261 ft | 261 kts | 219° |
| 2026-05-07 17:24 | 53.59706 | 14.70972 | 9284 ft | 265 kts | 218° |
| 2026-05-07 17:24 | 53.58050 | 14.69887 | 10323 ft | 263 kts | 182° |
| 2026-05-07 17:24 | 53.56349 | 14.70648 | 11315 ft | 263 kts | 147° |
| 2026-05-07 17:24 | 53.55028 | 14.72738 | 12257 ft | 267 kts | 134° |
| 2026-05-07 17:25 | 53.53769 | 14.75033 | 13153 ft | 272 kts | 132° |
| 2026-05-07 17:25 | 53.52504 | 14.77422 | 14028 ft | 277 kts | 131° |
| 2026-05-07 17:25 | 53.51229 | 14.79871 | 14915 ft | 281 kts | 131° |
| 2026-05-07 17:25 | 53.49961 | 14.82319 | 15802 ft | 284 kts | 132° |
| 2026-05-07 17:26 | 53.48810 | 14.84547 | 16593 ft | 286 kts | 132° |
| 2026-05-07 17:26 | 53.47926 | 14.86255 | 17194 ft | 287 kts | 132° |
| 2026-05-07 17:26 | 53.45145 | 14.91629 | 18865 ft | 295 kts | 133° |
| 2026-05-07 17:27 | 53.43762 | 14.94302 | 19657 ft | 298 kts | 133° |
| 2026-05-07 17:27 | 53.42397 | 14.96943 | 20403 ft | 302 kts | 133° |
| 2026-05-07 17:27 | 53.41023 | 14.99595 | 21128 ft | 305 kts | 133° |
| 2026-05-07 17:27 | 53.39441 | 15.01904 | 21808 ft | 306 kts | 148° |
| 2026-05-07 17:28 | 53.37676 | 15.03907 | 22492 ft | 309 kts | 148° |
| 2026-05-07 17:28 | 53.35899 | 15.05895 | 23151 ft | 313 kts | 148° |
| 2026-05-07 17:28 | 53.34078 | 15.07916 | 23800 ft | 316 kts | 148° |
| 2026-05-07 17:28 | 53.32241 | 15.09945 | 24427 ft | 319 kts | 148° |
| 2026-05-07 17:29 | 53.30406 | 15.11965 | 25055 ft | 321 kts | 148° |
| 2026-05-07 17:29 | 53.28548 | 15.14005 | 25665 ft | 323 kts | 148° |
| 2026-05-07 17:29 | 53.26668 | 15.16064 | 26338 ft | 323 kts | 149° |
| 2026-05-07 17:29 | 53.24802 | 15.18102 | 27036 ft | 321 kts | 149° |
| 2026-05-07 17:30 | 53.22948 | 15.20124 | 27707 ft | 319 kts | 149° |
| 2026-05-07 17:30 | 53.21115 | 15.22122 | 28373 ft | 316 kts | 149° |
| 2026-05-07 17:30 | 53.19283 | 15.24113 | 29005 ft | 314 kts | 149° |
| 2026-05-07 17:30 | 53.17456 | 15.26098 | 29618 ft | 313 kts | 149° |
| 2026-05-07 17:31 | 53.15659 | 15.28050 | 30165 ft | 313 kts | 150° |
| 2026-05-07 17:31 | 53.13782 | 15.30075 | 30145 ft | 332 kts | 150° |
| 2026-05-07 17:31 | 53.11832 | 15.32181 | 30427 ft | 339 kts | 150° |
| 2026-05-07 17:31 | 53.09872 | 15.34305 | 31014 ft | 337 kts | 150° |
| 2026-05-07 17:32 | 53.07894 | 15.36443 | 31571 ft | 336 kts | 150° |
| 2026-05-07 17:32 | 53.05964 | 15.38524 | 32111 ft | 334 kts | 150° |
| 2026-05-07 17:32 | 53.04027 | 15.40611 | 32643 ft | 332 kts | 150° |
| 2026-05-07 17:32 | 53.02107 | 15.42681 | 33156 ft | 331 kts | 150° |
| 2026-05-07 17:33 | 53.00181 | 15.44750 | 33644 ft | 329 kts | 150° |
| 2026-05-07 17:33 | 52.98267 | 15.46806 | 34128 ft | 328 kts | 151° |
| 2026-05-07 17:33 | 52.96380 | 15.48827 | 34552 ft | 328 kts | 150° |
| 2026-05-07 17:33 | 52.94452 | 15.50895 | 34954 ft | 329 kts | 150° |
| 2026-05-07 17:34 | 52.92503 | 15.52977 | 35057 ft | 339 kts | 150° |
| 2026-05-07 17:34 | 52.90509 | 15.55107 | 35073 ft | 351 kts | 150° |
| 2026-05-07 17:34 | 52.88430 | 15.57325 | 35081 ft | 363 kts | 150° |
| 2026-05-07 17:34 | 52.86273 | 15.59625 | 35082 ft | 375 kts | 150° |
| 2026-05-07 17:35 | 52.84047 | 15.61997 | 35082 ft | 387 kts | 150° |
| 2026-05-07 17:35 | 52.81752 | 15.64439 | 35081 ft | 397 kts | 150° |
| 2026-05-07 17:35 | 52.77051 | 15.69435 | 35075 ft | 412 kts | 151° |
| 2026-05-07 17:36 | 52.72168 | 15.74611 | 35066 ft | 420 kts | 151° |
| 2026-05-07 17:36 | 52.67235 | 15.79826 | 35056 ft | 424 kts | 151° |
| 2026-05-07 17:37 | 52.62288 | 15.85037 | 35048 ft | 423 kts | 151° |
| 2026-05-07 17:37 | 52.57344 | 15.90234 | 35047 ft | 421 kts | 151° |
| 2026-05-07 17:38 | 52.52443 | 15.95370 | 35047 ft | 419 kts | 151° |
| 2026-05-07 17:38 | 52.47591 | 16.00442 | 35047 ft | 418 kts | 151° |
| 2026-05-07 17:39 | 52.42712 | 16.05532 | 35046 ft | 417 kts | 151° |
| 2026-05-07 17:39 | 52.37847 | 16.10586 | 35046 ft | 417 kts | 151° |
| 2026-05-07 17:40 | 52.32934 | 16.15681 | 35046 ft | 417 kts | 151° |
| 2026-05-07 17:40 | 52.28082 | 16.20699 | 35045 ft | 417 kts | 151° |
| 2026-05-07 17:41 | 52.23217 | 16.25716 | 35045 ft | 417 kts | 151° |
| 2026-05-07 17:41 | 52.18341 | 16.30731 | 35044 ft | 417 kts | 151° |
| 2026-05-07 17:42 | 52.13473 | 16.35727 | 35044 ft | 417 kts | 151° |
| 2026-05-07 17:42 | 52.08597 | 16.40715 | 35044 ft | 418 kts | 151° |
| 2026-05-07 17:43 | 52.03686 | 16.45730 | 35043 ft | 418 kts | 151° |
| 2026-05-07 17:43 | 51.98781 | 16.50725 | 35043 ft | 417 kts | 151° |
| 2026-05-07 17:44 | 51.93917 | 16.55663 | 35043 ft | 417 kts | 152° |
| 2026-05-07 17:44 | 51.89039 | 16.60602 | 35048 ft | 416 kts | 152° |
| 2026-05-07 17:45 | 51.84262 | 16.65428 | 35052 ft | 416 kts | 152° |
| 2026-05-07 17:45 | 51.79345 | 16.70381 | 35049 ft | 416 kts | 153° |
| 2026-05-07 17:46 | 51.74457 | 16.75294 | 35049 ft | 415 kts | 153° |
| 2026-05-07 17:46 | 51.69593 | 16.80168 | 35049 ft | 415 kts | 153° |
| 2026-05-07 17:47 | 51.64702 | 16.85059 | 35041 ft | 415 kts | 153° |
| 2026-05-07 17:47 | 51.59867 | 16.89882 | 35031 ft | 415 kts | 153° |
| 2026-05-07 17:48 | 51.55014 | 16.94710 | 35024 ft | 415 kts | 153° |
| 2026-05-07 17:48 | 51.50180 | 16.99503 | 35020 ft | 414 kts | 153° |
| 2026-05-07 17:49 | 51.47844 | 17.02159 | 35000 ft | 423 kts | 141° |
| 2026-05-07 17:49 | 51.46155 | 17.06044 | 35018 ft | 435 kts | 124° |
| 2026-05-07 17:49 | 51.43206 | 17.14450 | 35019 ft | 435 kts | 126° |
| 2026-05-07 17:50 | 51.40206 | 17.22657 | 35017 ft | 424 kts | 126° |
| 2026-05-07 17:50 | 51.37277 | 17.30546 | 34835 ft | 418 kts | 127° |
| 2026-05-07 17:51 | 51.35841 | 17.34390 | 34395 ft | 425 kts | 127° |
| 2026-05-07 17:51 | 51.34330 | 17.38426 | 33927 ft | 430 kts | 127° |
| 2026-05-07 17:51 | 51.32796 | 17.42511 | 33451 ft | 429 kts | 127° |
| 2026-05-07 17:51 | 51.31261 | 17.46594 | 32973 ft | 428 kts | 127° |
| 2026-05-07 17:52 | 51.29726 | 17.50667 | 32497 ft | 426 kts | 127° |
| 2026-05-07 17:52 | 51.28215 | 17.54672 | 32028 ft | 425 kts | 128° |
| 2026-05-07 17:52 | 51.26702 | 17.58679 | 31559 ft | 423 kts | 128° |
| 2026-05-07 17:52 | 51.25187 | 17.62682 | 31090 ft | 421 kts | 128° |
| 2026-05-07 17:53 | 51.23674 | 17.66672 | 30620 ft | 419 kts | 128° |
| 2026-05-07 17:53 | 51.22181 | 17.70607 | 30155 ft | 416 kts | 129° |
| 2026-05-07 17:53 | 51.20683 | 17.74545 | 29690 ft | 415 kts | 129° |
| 2026-05-07 17:53 | 51.19183 | 17.78475 | 29230 ft | 417 kts | 128° |
| 2026-05-07 17:54 | 51.17684 | 17.82399 | 28770 ft | 419 kts | 128° |
| 2026-05-07 17:54 | 51.16156 | 17.86396 | 28303 ft | 420 kts | 128° |
| 2026-05-07 17:54 | 51.14644 | 17.90347 | 27842 ft | 421 kts | 128° |
| 2026-05-07 17:54 | 51.13138 | 17.94277 | 27383 ft | 421 kts | 128° |
| 2026-05-07 17:55 | 51.11621 | 17.98231 | 26921 ft | 421 kts | 128° |
| 2026-05-07 17:55 | 51.10087 | 18.02224 | 26454 ft | 421 kts | 128° |
| 2026-05-07 17:55 | 51.08581 | 18.06136 | 25999 ft | 420 kts | 128° |
| 2026-05-07 17:55 | 51.07056 | 18.10094 | 25536 ft | 416 kts | 128° |
| 2026-05-07 17:56 | 51.05560 | 18.13971 | 25082 ft | 410 kts | 128° |
| 2026-05-07 17:56 | 51.04084 | 18.17789 | 24635 ft | 405 kts | 128° |
| 2026-05-07 17:56 | 51.02661 | 18.21463 | 24205 ft | 400 kts | 128° |
| 2026-05-07 17:56 | 51.01200 | 18.25231 | 23763 ft | 396 kts | 128° |
| 2026-05-07 17:57 | 50.99759 | 18.28937 | 23329 ft | 394 kts | 128° |
| 2026-05-07 17:57 | 50.98816 | 18.31358 | 23046 ft | 396 kts | 127° |
| 2026-05-07 17:57 | 50.96882 | 18.36316 | 22465 ft | 399 kts | 127° |
| 2026-05-07 17:57 | 50.95429 | 18.40041 | 22027 ft | 400 kts | 127° |
| 2026-05-07 17:58 | 50.93963 | 18.43792 | 21586 ft | 400 kts | 127° |
| 2026-05-07 17:58 | 50.92495 | 18.47544 | 21144 ft | 400 kts | 127° |
| 2026-05-07 17:58 | 50.91037 | 18.51264 | 20558 ft | 401 kts | 126° |
| 2026-05-07 17:58 | 50.89611 | 18.54905 | 19866 ft | 380 kts | 126° |
| 2026-05-07 17:59 | 50.88254 | 18.58364 | 19210 ft | 362 kts | 126° |
| 2026-05-07 17:59 | 50.86944 | 18.61695 | 18571 ft | 350 kts | 126° |
| 2026-05-07 17:59 | 50.85694 | 18.64868 | 17942 ft | 340 kts | 126° |
| 2026-05-07 17:59 | 50.84456 | 18.68007 | 17329 ft | 330 kts | 127° |
| 2026-05-07 18:00 | 50.83261 | 18.71036 | 16738 ft | 324 kts | 127° |
| 2026-05-07 18:00 | 50.82074 | 18.74036 | 16126 ft | 321 kts | 127° |
| 2026-05-07 18:00 | 50.80897 | 18.77009 | 15517 ft | 314 kts | 126° |
| 2026-05-07 18:00 | 50.79753 | 18.79898 | 14934 ft | 308 kts | 126° |
| 2026-05-07 18:01 | 50.78628 | 18.82731 | 14348 ft | 305 kts | 126° |
| 2026-05-07 18:01 | 50.77506 | 18.85554 | 13759 ft | 301 kts | 126° |
| 2026-05-07 18:01 | 50.76435 | 18.88299 | 12960 ft | 287 kts | 128° |
| 2026-05-07 18:01 | 50.75410 | 18.90826 | 12425 ft | 264 kts | 126° |
| 2026-05-07 18:02 | 50.73635 | 18.95286 | 11451 ft | 238 kts | 126° |
| 2026-05-07 18:02 | 50.72695 | 18.97626 | 11045 ft | 275 kts | 126° |
| 2026-05-07 18:02 | 50.71662 | 19.00210 | 10520 ft | 277 kts | 124° |
| 2026-05-07 18:03 | 50.70663 | 19.02717 | 10066 ft | 268 kts | 125° |
| 2026-05-07 18:03 | 50.69700 | 19.05137 | 9922 ft | 257 kts | 125° |
| 2026-05-07 18:03 | 50.68729 | 19.07543 | 9203 ft | 266 kts | 124° |
| 2026-05-07 18:03 | 50.67724 | 19.10063 | 8523 ft | 275 kts | 124° |
| 2026-05-07 18:04 | 50.66696 | 19.12620 | 7924 ft | 276 kts | 124° |
| 2026-05-07 18:04 | 50.65701 | 19.15103 | 7654 ft | 262 kts | 124° |
| 2026-05-07 18:04 | 50.64740 | 19.17493 | 7381 ft | 254 kts | 124° |
| 2026-05-07 18:04 | 50.63799 | 19.19835 | 7113 ft | 254 kts | 123° |
| 2026-05-07 18:05 | 50.62847 | 19.22203 | 6852 ft | 258 kts | 124° |
| 2026-05-07 18:05 | 50.61878 | 19.24603 | 6551 ft | 258 kts | 124° |
| 2026-05-07 18:05 | 50.60917 | 19.26968 | 6299 ft | 257 kts | 124° |
| 2026-05-07 18:05 | 50.59969 | 19.29326 | 5842 ft | 260 kts | 124° |
| 2026-05-07 18:06 | 50.58996 | 19.31722 | 5322 ft | 263 kts | 123° |
| 2026-05-07 18:06 | 50.58059 | 19.34036 | 5039 ft | 230 kts | 123° |
| 2026-05-07 18:06 | 50.57279 | 19.35994 | 4970 ft | 197 kts | 122° |
| 2026-05-07 18:06 | 50.56576 | 19.37775 | 5040 ft | 195 kts | 123° |
| 2026-05-07 18:07 | 50.55823 | 19.39507 | 4983 ft | 190 kts | 136° |
| 2026-05-07 18:07 | 50.54673 | 19.40257 | 4996 ft | 180 kts | 175° |
| 2026-05-07 18:07 | 50.53421 | 19.40489 | 5008 ft | 184 kts | 175° |
| 2026-05-07 18:07 | 50.52140 | 19.40720 | 4973 ft | 189 kts | 175° |
| 2026-05-07 18:08 | 50.50880 | 19.40951 | 5004 ft | 177 kts | 175° |
| 2026-05-07 18:08 | 50.49674 | 19.41178 | 4888 ft | 178 kts | 175° |
| 2026-05-07 18:08 | 50.48412 | 19.41072 | 4360 ft | 192 kts | 205° |
| 2026-05-07 18:08 | 50.47554 | 19.39636 | 4065 ft | 175 kts | 252° |
| 2026-05-07 18:09 | 50.47478 | 19.37836 | 4020 ft | 158 kts | 270° |
| 2026-05-07 18:09 | 50.47485 | 19.36151 | 3997 ft | 152 kts | 270° |
| 2026-05-07 18:09 | 50.47490 | 19.34467 | 3994 ft | 155 kts | 271° |
| 2026-05-07 18:09 | 50.47504 | 19.32738 | 3801 ft | 158 kts | 270° |
| 2026-05-07 18:10 | 50.47508 | 19.31030 | 3610 ft | 158 kts | 270° |
| 2026-05-07 18:10 | 50.47517 | 19.29298 | 3433 ft | 154 kts | 271° |
| 2026-05-07 18:10 | 50.47522 | 19.27678 | 3245 ft | 144 kts | 270° |
| 2026-05-07 18:10 | 50.47533 | 19.26178 | 3058 ft | 132 kts | 270° |
| 2026-05-07 18:11 | 50.47539 | 19.24760 | 2867 ft | 125 kts | 270° |
| 2026-05-07 18:11 | 50.47543 | 19.23456 | 2698 ft | 117 kts | 271° |
| 2026-05-07 18:11 | 50.47546 | 19.22208 | 2540 ft | 112 kts | 271° |
| 2026-05-07 18:11 | 50.47550 | 19.21005 | 2384 ft | 112 kts | 271° |
| 2026-05-07 18:12 | 50.47556 | 19.19742 | 2250 ft | 117 kts | 272° |
| 2026-05-07 18:12 | 50.47564 | 19.18448 | 2090 ft | 120 kts | 272° |
| 2026-05-07 18:12 | 50.47568 | 19.17163 | 1920 ft | 117 kts | 271° |
| 2026-05-07 18:12 | 50.47572 | 19.15895 | 1768 ft | 113 kts | 271° |
| 2026-05-07 18:13 | 50.47577 | 19.14662 | 1614 ft | 113 kts | 271° |
| 2026-05-07 18:13 | 50.47579 | 19.13437 | 1482 ft | 110 kts | 271° |
| 2026-05-07 18:13 | 50.47582 | 19.12217 | 1306 ft | 110 kts | 268° |
| 2026-05-07 18:13 | 50.47591 | 19.11026 | 1165 ft | 112 kts | 273° |
| 2026-05-07 18:14 | 50.47598 | 19.09784 | 1003 ft | 113 kts | 271° |
| 2026-05-07 18:14 | 50.47605 | 19.08628 | 979 ft | 96 kts | 268° |
| 2026-05-07 18:14 | 50.47603 | 19.07734 | 976 ft | 63 kts | 271° |
| 2026-05-07 18:14 | 50.47591 | 19.07229 | 973 ft | 38 kts | 259° |
| 2026-05-07 18:15 | 50.47514 | 19.06928 | 971 ft | 9 kts | 240° |
| 2026-05-07 18:15 | 50.47507 | 19.06911 | 971 ft | 0 kts | 239° |
| 2026-05-07 18:15 | 50.47506 | 19.06907 | 971 ft | 0 kts | 239° |
| 2026-05-07 18:15 | 50.47499 | 19.06889 | 971 ft | 2 kts | 239° |
| 2026-05-07 18:16 | 50.47477 | 19.06828 | 970 ft | 9 kts | 241° |
| 2026-05-07 18:16 | 50.47436 | 19.06721 | 970 ft | 12 kts | 239° |
| 2026-05-07 18:16 | 50.47429 | 19.06587 | 970 ft | 14 kts | 270° |
| 2026-05-07 18:16 | 50.47428 | 19.06392 | 969 ft | 21 kts | 270° |
| 2026-05-07 18:17 | 50.47429 | 19.06137 | 969 ft | 23 kts | 270° |
| 2026-05-07 18:17 | 50.47447 | 19.05897 | 968 ft | 21 kts | 268° |
| 2026-05-07 18:17 | 50.47422 | 19.05752 | 967 ft | 10 kts | 183° |
| 2026-05-07 18:17 | 50.47417 | 19.05751 | 968 ft | 0 kts | 181° |